Latest Weather Observations for Julia Creek

IDQ60801

Issued at 10:32 pm EST Tuesday 3 March 2015 (issued every 30 minutes, with the page automatically refreshed every 10 minutes)

About weather observations | Map of weather stations | Latest weather observations for QLD | Other Formats
Station Details ID: 029058 Name: JULIA CREEK AIRPORT Lat: -20.67 Lon: 141.72 Height: 122.5 m
Data from the previous 72 hours. | See also: Recent months at Julia Creek
Date/Time
EST
Temp
°C
App
Temp
°C
Dew
Point
Rel
Hum
%
Delta-T
°C
Wind Press
QNH
hPa
Press
MSL
hPa
Rain
since 9 am
mm
Dir
 
Spd
km/h
Gust
km/h
Spd
kts
Gust
kts
03/10:30pm 31.5 32.2 17.0 41 9.2 E 9 11 5 6 1009.2 1008.4 0.0
03/10:00pm 31.3 32.6 17.6 44 8.8 ESE 7 7 4 4 1009.0 1008.2 0.0
03/09:30pm 31.7 33.0 17.2 42 9.3 SE 6 7 3 4 1009.0 1008.2 0.0
03/09:00pm 33.2 34.3 17.0 38 10.4 E 7 9 4 5 1008.8 1008.0 0.0
03/08:30pm 34.3 35.6 17.1 36 11.1 E 6 9 3 5 1008.5 1007.7 0.0
03/08:00pm 35.2 36.4 17.4 34 11.5 E 7 11 4 6 1008.3 1007.5 0.0
03/07:30pm 36.2 36.8 17.8 33 12.0 E 11 13 6 7 1007.7 1006.9 0.0
03/07:00pm 36.6 37.2 17.7 32 12.4 E 11 17 6 9 1007.2 1006.4 0.0
03/06:30pm 37.4 37.1 17.4 30 13.0 E 15 20 8 11 1006.8 1005.9 0.0
03/06:00pm 37.7 40.2 18.2 32 12.9 S 2 9 1 5 1006.6 1005.7 0.0
03/05:30pm 38.2 40.1 18.6 31 13.0 ENE 6 15 3 8 1006.6 1005.7 0.0
03/05:00pm 38.2 40.3 18.1 30 13.3 SW 4 13 2 7 1006.7 1005.8 0.0
03/04:30pm 38.3 39.9 18.2 31 13.3 ENE 7 15 4 8 1006.9 1006.1 0.0
03/04:00pm 37.3 38.9 17.8 31 12.8 ESE 6 17 3 9 1007.1 1006.3 0.0
03/03:30pm 37.1 37.7 17.6 31 12.7 E 11 20 6 11 1007.4 1006.6 0.0
03/03:00pm 37.7 38.9 18.2 32 12.9 E 9 19 5 10 1007.9 1007.1 0.0
03/02:30pm 37.3 37.9 17.8 31 12.8 ENE 11 22 6 12 1008.2 1007.4 0.0
03/02:00pm 36.4 36.3 17.0 31 12.5 N 13 24 7 13 1008.8 1008.0 0.0
03/01:30pm 37.1 36.9 17.6 31 12.7 NNE 15 26 8 14 1009.2 1008.4 0.0
03/01:00pm 36.2 36.3 18.3 34 11.8 NNE 15 24 8 13 1009.8 1009.0 0.0
03/12:30pm 37.1 37.8 20.4 37 11.3 NNE 17 28 9 15 1010.5 1009.7 0.0
03/12:00pm 35.7 35.8 20.0 39 10.5 N 19 30 10 16 1011.1 1010.3 0.0
03/11:30am 35.1 33.6 18.6 37 10.8 NNE 24 37 13 20 1011.6 1010.8 0.0
03/11:00am 34.6 34.1 19.0 39 10.3 N 20 32 11 17 1011.7 1010.9 0.0
03/10:30am 34.2 33.6 19.8 42 9.6 N 22 30 12 16 1011.8 1011.0 0.0
03/10:00am 33.7 34.2 21.2 48 8.5 NNE 20 33 11 18 1011.4 1010.6 0.0
03/09:30am 32.4 32.0 21.0 51 7.7 N 24 33 13 18 1011.5 1010.7 0.0
03/09:00am 31.6 32.3 21.5 55 6.8 N 20 28 11 15 1011.3 1010.5 0.0
03/08:30am 30.1 32.8 22.8 65 5.0 N 13 19 7 10 1011.2 1010.4 0.0
03/08:00am 29.7 32.2 23.2 68 4.5 N 15 20 8 11 1010.8 1010.0 0.0
03/07:30am 28.7 31.4 22.9 71 4.0 N 13 19 7 10 1010.2 1009.4 0.0
03/07:00am 27.7 30.9 23.1 76 3.2 N 11 15 6 8 1009.6 1008.8 0.0
03/06:30am 27.5 30.6 22.9 76 3.1 NNE 11 13 6 7 1009.4 1008.6 0.0
03/06:00am 27.8 30.2 23.0 75 3.3 N 15 19 8 10 1008.8 1008.0 0.0
03/05:30am 28.1 30.6 23.2 74 3.4 NNE 15 20 8 11 1008.4 1007.6 0.0
03/05:00am 28.0 31.5 23.6 77 3.0 NNE 11 17 6 9 1008.1 1007.3 0.0
03/04:30am 28.4 31.9 23.5 75 3.4 NNE 11 15 6 8 1007.7 1006.9 0.0
03/04:00am 28.8 32.3 23.5 73 3.7 N 11 19 6 10 1007.2 1006.4 0.0
03/03:30am 28.9 31.9 23.3 72 3.9 N 13 15 7 8 1007.1 1006.3 0.0
03/03:00am 29.2 32.2 23.4 71 4.0 N 13 15 7 8 1006.8 1005.9 0.0
03/02:30am 29.7 32.4 23.4 69 4.4 N 15 17 8 9 1006.8 1005.9 0.0
03/02:00am 30.0 32.0 22.9 65 4.9 N 17 20 9 11 1006.9 1006.1 0.0
03/01:30am 30.3 32.7 22.2 62 5.5 N 13 19 7 10 1006.9 1006.1 0.0
03/01:00am 30.4 31.9 22.0 60 5.7 NNE 17 20 9 11 1007.0 1006.2 0.0
03/12:30am 30.9 31.9 21.7 58 6.2 NNE 19 24 10 13 1007.1 1006.3 0.0
03/12:00am 31.1 32.8 21.6 57 6.4 NE 15 19 8 10 1006.9 1006.1 0.0
 
Date/Time
EST
Temp
°C
App
Temp
°C
Dew
Point
Rel
Hum
%
Delta-T
°C
Wind Press
QNH
hPa
Press
MSL
hPa
Rain
since 9 am
mm
Dir
 
Spd
km/h
Gust
km/h
Spd
kts
Gust
kts
02/11:30pm 31.5 33.3 21.1 54 7.0 NNE 13 19 7 10 1006.3 1005.4 0.0
02/11:00pm 31.6 33.4 21.2 54 7.0 NE 13 17 7 9 1006.5 1005.6 0.0
02/10:30pm 32.4 33.5 21.3 52 7.5 ENE 17 26 9 14 1007.3 1006.5 0.0
02/10:00pm 32.8 35.6 22.3 54 7.2 NE 11 15 6 8 1007.6 1006.8 0.0
02/09:30pm 33.5 37.1 22.0 51 7.9 N 6 11 3 6 1006.8 1005.9 0.0
02/09:00pm 33.5 37.1 22.3 52 7.7 WNW 7 13 4 7 1006.0 1005.1 0.0
02/08:30pm 34.2 37.9 22.6 50 8.0 N 7 9 4 5 1005.4 1004.6 0.0
02/08:00pm 35.0 38.4 22.7 49 8.5 N 9 13 5 7 1005.1 1004.3 0.0
02/07:30pm 35.5 38.2 22.1 45 9.2 N 11 13 6 7 1004.7 1003.9 0.0
02/07:00pm 36.5 39.4 21.1 40 10.5 NNW 7 11 4 6 1004.5 1003.7 0.0
02/06:30pm 37.8 40.1 21.4 38 11.3 NNW 11 13 6 7 1004.2 1003.4 0.0
02/06:00pm 38.0 40.2 21.2 37 11.5 NNW 11 19 6 10 1003.5 1002.7 0.0
02/05:30pm 38.4 39.8 21.1 36 11.8 N 15 22 8 12 1003.7 1002.9 0.0
02/05:00pm 38.9 41.3 21.6 37 12.0 N 11 19 6 10 1003.6 1002.8 0.0
02/04:30pm 39.2 41.2 22.3 38 11.8 NW 15 28 8 15 1003.7 1002.9 0.0
02/04:00pm 38.9 41.4 22.4 38 11.5 N 13 22 7 12 1003.8 1003.0 0.0
02/03:30pm 38.3 40.2 22.7 40 10.9 NNW 17 30 9 16 1004.2 1003.4 0.0
02/03:00pm 38.0 40.5 23.2 42 10.4 NNW 15 28 8 15 1004.6 1003.8 0.0
02/02:30pm 37.5 40.6 23.5 44 9.8 NNW 13 24 7 13 1004.9 1004.1 0.0
02/02:00pm 36.7 38.9 23.9 47 9.1 NNW 19 26 10 14 1005.3 1004.5 0.0
02/01:30pm 36.4 39.8 24.6 50 8.4 NW 15 24 8 13 1006.0 1005.1 0.0
02/01:00pm 35.6 39.0 25.2 55 7.4 NNW 17 24 9 13 1006.6 1005.7 0.0
02/12:30pm 34.4 37.9 24.9 57 6.8 NNW 15 26 8 14 1007.2 1006.4 0.0
02/12:00pm 34.0 37.5 24.8 58 6.5 NNW 15 24 8 13 1007.7 1006.9 0.0
02/11:30am 32.7 35.3 23.9 60 6.2 NNW 17 22 9 12 1008.0 1007.2 0.0
02/11:00am 31.8 34.5 24.1 63 5.4 NW 17 26 9 14 1008.0 1007.2 0.0
02/10:30am 31.3 35.2 25.4 71 4.2 NNW 15 22 8 12 1008.5 1007.7 0.0
02/10:00am 29.9 33.5 24.3 72 3.9 NNW 13 19 7 10 1008.7 1007.9 0.0
02/09:30am 28.9 31.5 23.3 72 3.9 N 15 19 8 10 1008.8 1008.0 0.0
02/09:00am 28.1 30.1 23.0 74 3.5 N 17 20 9 11 1008.5 1007.7 14.0
02/08:30am 27.6 29.9 23.4 78 2.9 N 17 22 9 12 1008.4 1007.6 14.0
02/08:00am 26.5 29.8 23.2 82 2.3 NNW 11 17 6 9 1008.0 1007.2 14.0
02/07:30am 25.2 28.3 22.9 87 1.6 N 11 13 6 7 1007.8 1007.0 14.0
02/07:00am 24.3 27.8 22.9 92 0.9 NNE 9 11 5 6 1007.5 1006.7 14.0
02/06:30am 24.1 28.1 22.7 92 0.9 N 6 7 3 4 1007.1 1006.3 14.0
02/06:00am 24.2 28.0 22.8 92 0.9 N 7 9 4 5 1006.7 1005.8 14.0
02/05:30am 24.4 28.0 23.0 92 0.9 NNW 9 11 5 6 1006.3 1005.4 14.0
02/05:00am 24.1 28.6 22.9 93 0.8 NNW 4 6 2 3 1006.3 1005.4 14.0
02/04:30am 24.2 28.3 23.2 94 0.7 NW 7 9 4 5 1006.0 1005.1 14.0
02/04:00am 24.1 28.1 23.1 94 0.7 NW 7 11 4 6 1005.8 1004.9 14.0
02/03:30am 24.2 28.3 23.2 94 0.7 NNW 7 9 4 5 1005.8 1004.9 14.0
02/03:00am 24.3 28.3 23.1 93 0.8 N 7 11 4 6 1005.8 1004.9 14.0
02/02:30am 24.2 27.9 23.2 94 0.7 N 9 11 5 6 1006.1 1005.2 14.0
02/02:00am 24.0 28.4 22.8 93 0.8 NNW 4 6 2 3 1006.4 1005.5 14.0
02/01:30am 24.2 28.6 22.8 92 0.9 N 4 7 2 4 1006.3 1005.4 14.0
02/01:00am 24.3 28.2 22.9 92 1.0 NNE 7 9 4 5 1006.4 1005.5 14.0
02/12:30am 24.2 28.1 22.6 91 1.1 WNW 6 7 3 4 1006.4 1005.5 14.0
02/12:00am 24.8 27.3 22.5 87 1.6 NW 13 19 7 10 1006.8 1005.9 14.0
 
Date/Time
EST
Temp
°C
App
Temp
°C
Dew
Point
Rel
Hum
%
Delta-T
°C
Wind Press
QNH
hPa
Press
MSL
hPa
Rain
since 9 am
mm
Dir
 
Spd
km/h
Gust
km/h
Spd
kts
Gust
kts
01/11:30pm 25.3 26.5 22.2 83 2.1 NNW 19 24 10 13 1007.2 1006.4 13.8
01/11:00pm 25.6 27.3 22.3 82 2.2 NNW 17 20 9 11 1006.9 1006.1 13.8
01/10:30pm 25.7 27.6 22.8 84 2.0 N 17 22 9 12 1006.9 1006.1 13.8
01/10:00pm 25.8 29.3 22.9 84 2.0 NE 9 17 5 9 1006.6 1005.7 13.8
01/09:30pm 25.5 27.7 22.6 84 2.0 NNW 15 20 8 11 1006.0 1005.1 13.8
01/09:00pm 25.3 27.2 22.8 86 1.7 NW 17 26 9 14 1005.6 1004.7 13.8
01/08:30pm 25.2 24.9 22.5 85 1.8 N 28 35 15 19 1006.2 1005.3 13.4
01/08:00pm 24.6 26.9 22.1 86 1.7 WNW 13 30 7 16 1007.3 1006.5 11.8
01/07:41pm 27.5 25.5 21.8 71 3.8 SSW 35 61 19 33 1007.7 1006.9 4.2
01/07:35pm 27.3 25.4 22.0 73 3.6 S 35 61 19 33 1007.5 1006.7 4.2
01/07:30pm 27.8 25.8 22.5 73 3.6 SSW 37 65 20 35 1007.5 1006.7 4.2
01/07:26pm 28.5 27.0 22.0 68 4.4 SW 33 65 18 35 1007.2 1006.4 4.2
01/07:24pm 28.8 28.7 22.3 68 4.4 SW 26 65 14 35 1007.1 1006.3 4.2
01/07:14pm 28.9 31.8 23.1 71 4.0 NNE 13 24 7 13 1006.0 1005.1 4.2
01/07:00pm 28.6 31.3 22.8 71 4.0 N 13 17 7 9 1003.9 1003.1 4.2
01/06:30pm 29.8 30.6 22.5 65 5.0 NNW 22 32 12 17 1003.6 1002.8 4.2
01/06:00pm 30.2 30.9 21.6 60 5.8 NNW 20 28 11 15 1002.9 1002.1 4.2
01/05:30pm 29.2 27.5 21.4 63 5.2 N 32 41 17 22 1002.9 1002.1 4.2
01/05:05pm 28.5 25.4 22.0 68 4.4 N 41 61 22 33 1002.8 1002.0 4.2
01/05:00pm 28.9 25.2 21.9 66 4.7 N 44 61 24 33 1002.5 1001.7 4.2
01/04:36pm 28.3 26.6 23.7 76 3.2 N 39 59 21 32 1002.1 1001.3 4.2
01/04:30pm 27.9 25.6 23.3 76 3.2 N 41 52 22 28 1002.2 1001.4 4.2
01/04:22pm 27.2 27.2 23.0 78 2.9 NNE 28 48 15 26 1002.6 1001.8 3.6
01/04:16pm 28.0 29.0 22.9 74 3.5 NE 22 37 12 20 1003.4 1002.6 2.0
01/04:00pm 33.1 32.3 20.9 48 8.3 N 26 43 14 23 1003.3 1002.5 0.0
01/03:41pm 34.5 33.1 21.2 46 9.0 NNE 30 48 16 26 1003.2 1002.4 0.0
01/03:30pm 35.8 35.6 20.5 41 10.3 N 22 28 12 15 1003.4 1002.6 0.0
01/03:19pm 34.1 32.4 19.7 42 9.6 N 28 46 15 25 1003.5 1002.7 0.0
01/03:07pm 34.0 32.8 20.0 43 9.4 N 26 48 14 26 1003.5 1002.7 0.0
01/03:00pm 39.0 38.6 19.3 31 13.2 NW 20 28 11 15 1003.8 1003.0 0.0
01/02:30pm 37.2 37.5 20.5 37 11.3 NW 19 28 10 15 1004.2 1003.4 0.0
01/02:00pm 39.0 38.4 19.8 32 13.0 NW 22 32 12 17 1004.7 1003.9 0.0
01/01:30pm 39.0 39.1 20.3 34 12.7 NW 20 32 11 17 1005.2 1004.4 0.0
01/01:00pm 39.0 38.8 21.2 35 12.2 NW 24 35 13 19 1005.6 1004.7 0.0
01/12:30pm 37.5 36.7 20.8 38 11.4 NNW 26 43 14 23 1006.1 1005.2 0.0
01/12:00pm 38.1 36.8 21.3 37 11.5 NW 30 46 16 25 1006.4 1005.5 0.0
01/11:30am 37.0 36.4 21.9 41 10.4 NW 28 43 15 23 1006.9 1006.1 0.0
01/11:00am 35.9 34.8 21.7 43 9.8 NW 30 46 16 25 1007.4 1006.6 0.0
01/10:30am 34.7 34.7 22.4 48 8.5 NNW 26 35 14 19 1007.7 1006.9 0.0
01/10:00am 34.8 33.9 22.2 48 8.7 NNW 30 39 16 21 1007.7 1006.9 0.0
01/09:30am 33.6 33.2 22.4 52 7.7 NNW 28 37 15 20 1007.8 1006.9 0.0
01/09:00am 32.9 33.1 22.7 55 7.0 NW 26 33 14 18 1007.7 1006.8 0.0
01/08:30am 31.7 33.3 23.2 60 5.9 NNW 20 28 11 15 1007.4 1006.5 0.0
01/08:00am 29.9 31.5 23.3 67 4.6 N 20 26 11 14 1007.4 1006.5 0.0
01/07:30am 28.8 30.6 23.2 71 3.9 N 19 26 10 14 1006.9 1006.0 0.0
01/07:00am 28.0 30.0 22.9 74 3.5 N 17 24 9 13 1006.5 1005.6 0.0
01/06:30am 27.8 29.8 23.0 75 3.3 N 17 24 9 13 1006.0 1005.1 0.0
01/06:00am 28.0 30.0 22.9 74 3.5 N 17 22 9 12 1005.8 1004.9 0.0
01/05:30am 28.2 30.6 22.9 73 3.6 N 15 20 8 11 1005.4 1004.6 0.0
01/05:00am 28.3 30.6 22.8 72 3.8 NNW 15 22 8 12 1005.1 1004.2 0.0
01/04:30am 28.6 30.2 22.8 71 4.0 NNW 19 24 10 13 1004.6 1003.7 0.0
01/04:00am 28.9 30.5 22.9 70 4.1 N 19 24 10 13 1004.3 1003.4 0.0
01/03:30am 29.2 30.6 22.9 69 4.3 NNW 20 28 11 15 1004.1 1003.2 0.0
01/03:00am 29.4 30.2 23.1 69 4.3 NNW 24 35 13 19 1004.0 1003.1 0.0
01/02:30am 30.0 31.6 22.9 65 4.9 NNW 19 24 10 13 1004.1 1003.2 0.0
01/02:00am 30.5 32.3 23.2 65 5.1 NNW 19 24 10 13 1004.1 1003.2 0.0
01/01:30am 30.8 32.4 22.9 62 5.4 N 19 24 10 13 1004.2 1003.3 0.0
01/01:00am 31.1 32.8 22.4 60 6.0 NNW 17 24 9 13 1004.5 1003.6 0.0
01/12:30am 31.6 33.9 22.0 56 6.5 N 13 19 7 10 1004.9 1004.0 0.0
01/12:00am 32.4 33.5 21.9 54 7.2 NNW 19 26 10 14 1005.0 1004.1 0.0
 
Date/Time
EST
Temp
°C
App
Temp
°C
Dew
Point
Rel
Hum
%
Delta-T
°C
Wind Press
QNH
hPa
Press
MSL
hPa
Rain
since 9 am
mm
Dir
 
Spd
km/h
Gust
km/h
Spd
kts
Gust
kts
28/11:30pm 32.9 33.4 22.0 52 7.5 NW 22 32 12 17 1005.2 1004.4 0.0
28/11:00pm 33.5 33.7 22.0 51 7.9 NW 24 33 13 18 1005.1 1004.2 0.0

Other Formats:

Comma delimited format used in spreadsheet applications
http://www.bom.gov.au/fwo/IDQ60801/IDQ60801.94337.axf

JavaScript Object Notation format (JSON) in row-major order
http://www.bom.gov.au/fwo/IDQ60801/IDQ60801.94337.json